Terminal Aerodrome Forecast
Issued by NWS Wilmington, OH

Current Version | Previous Version | Text Only | Print | Product List | Glossary Off
Versions: 1 2 3 4 5 6 7 8 9 10 11 12 13 14 15 16

088
FTUS41 KILN 041543 AAA
TAFDAY
TAF AMD
KDAY 041543Z 0416/0512 28011KT P6SM OVC022
      TEMPO 0416/0418 4SM -SN
     FM041800 27010KT P6SM BKN025
     FM042200 28007KT P6SM SCT025
     FM050200 26006KT P6SM SKC=

USA.gov is the U.S. government's official web portal to all federal, state and local government web resources and services.